createdAt,value
2022-08-31T00:00:34.862Z,2.33
2022-08-31T00:03:20.975Z,2.20
2022-08-31T00:05:48.457Z,2.43
2022-08-31T00:08:16.184Z,1.70
2022-08-31T00:10:46.625Z,2.20
2022-08-31T00:13:15.383Z,2.00
2022-08-31T00:15:42.920Z,2.10
2022-08-31T00:18:10.850Z,1.87
2022-08-31T00:20:38.668Z,2.00
2022-08-31T00:23:09.049Z,2.00
2022-08-31T00:25:39.059Z,1.83
2022-08-31T00:28:07.397Z,2.03
2022-08-31T00:30:36.361Z,2.10
2022-08-31T00:33:05.429Z,2.03
2022-08-31T00:35:36.467Z,2.40
2022-08-31T00:38:05.861Z,1.87
2022-08-31T00:40:33.746Z,1.77
2022-08-31T00:43:12.211Z,2.13
2022-08-31T00:45:39.742Z,2.13
2022-08-31T00:48:07.138Z,1.70
2022-08-31T00:50:34.840Z,2.00
2022-08-31T00:53:03.063Z,2.00
2022-08-31T00:55:34.316Z,1.83
2022-08-31T00:58:07.050Z,1.90
2022-08-31T01:00:34.698Z,2.43
2022-08-31T01:03:04.093Z,2.70
2022-08-31T01:05:32.667Z,2.53
2022-08-31T01:08:01.953Z,2.67
2022-08-31T01:10:37.299Z,2.60
2022-08-31T01:13:06.398Z,2.23
2022-08-31T01:15:34.715Z,2.27
2022-08-31T01:18:03.904Z,1.93
2022-08-31T01:20:49.111Z,2.40
2022-08-31T01:23:30.292Z,2.23
2022-08-31T01:25:58.896Z,2.30
2022-08-31T01:28:26.817Z,2.20
2022-08-31T01:31:08.126Z,2.50
2022-08-31T01:33:38.861Z,2.87
2022-08-31T01:36:08.310Z,2.50
2022-08-31T01:38:36.850Z,3.40
2022-08-31T01:41:04.936Z,2.77
2022-08-31T01:43:36.582Z,2.57
2022-08-31T01:46:09.858Z,2.50
2022-08-31T01:48:41.265Z,2.67
2022-08-31T01:51:12.341Z,2.90
2022-08-31T01:53:42.130Z,2.30
2022-08-31T01:56:20.658Z,2.13
2022-08-31T01:58:48.033Z,2.87
2022-08-31T02:01:32.985Z,2.77
2022-08-31T02:04:03.063Z,2.53
2022-08-31T02:06:30.681Z,2.60
2022-08-31T02:08:58.460Z,2.90
2022-08-31T02:11:25.810Z,3.40
2022-08-31T02:13:53.156Z,3.07
2022-08-31T02:16:20.611Z,3.50
2022-08-31T02:18:47.920Z,3.30
2022-08-31T02:21:15.290Z,3.43
2022-08-31T02:23:42.969Z,3.80
2022-08-31T02:26:11.981Z,3.33
2022-08-31T02:28:39.300Z,3.50
2022-08-31T02:31:07.263Z,3.47
2022-08-31T02:33:35.568Z,3.67
2022-08-31T02:36:03.267Z,4.50
2022-08-31T02:38:33.139Z,4.17
2022-08-31T02:41:02.873Z,4.33
2022-08-31T02:43:30.446Z,4.87
2022-08-31T02:45:57.803Z,4.90
2022-08-31T02:48:25.566Z,4.10
2022-08-31T02:50:54.376Z,4.33
2022-08-31T02:53:23.680Z,4.43
2022-08-31T02:55:51.087Z,4.13
2022-08-31T02:58:23.829Z,4.27
2022-08-31T03:00:52.341Z,4.60
2022-08-31T03:03:22.143Z,3.77
2022-08-31T03:05:53.015Z,3.67
2022-08-31T03:08:20.430Z,3.37
2022-08-31T03:10:47.884Z,3.00
2022-08-31T03:13:15.275Z,2.80
2022-08-31T03:15:44.286Z,2.30
2022-08-31T03:18:11.652Z,2.90
2022-08-31T03:20:39.036Z,4.30
2022-08-31T03:23:06.437Z,3.73
2022-08-31T03:25:33.969Z,3.10
2022-08-31T03:28:01.357Z,3.07
2022-08-31T03:30:29.916Z,3.77
2022-08-31T03:33:02.339Z,5.30
2022-08-31T03:35:31.275Z,4.00
2022-08-31T03:37:59.131Z,3.40
2022-08-31T03:40:26.589Z,3.30
2022-08-31T03:42:54.146Z,3.53
2022-08-31T03:45:22.200Z,3.37
2022-08-31T03:47:49.551Z,3.60
2022-08-31T03:50:16.951Z,4.30
2022-08-31T03:52:44.316Z,5.07
2022-08-31T03:55:12.874Z,6.00
2022-08-31T03:57:40.737Z,5.17
2022-08-31T04:00:09.480Z,5.20
2022-08-31T04:02:40.670Z,4.60
2022-08-31T04:05:09.115Z,4.40
2022-08-31T04:07:42.963Z,4.13
2022-08-31T04:10:12.718Z,4.27
2022-08-31T04:12:40.895Z,4.07
2022-08-31T04:15:09.174Z,4.10
2022-08-31T04:17:36.845Z,4.57
2022-08-31T04:20:06.411Z,4.30
2022-08-31T04:22:34.054Z,4.20
2022-08-31T04:25:01.386Z,3.87
2022-08-31T04:27:28.779Z,3.93
2022-08-31T04:29:56.101Z,4.10
2022-08-31T04:32:23.706Z,4.33
2022-08-31T04:34:56.261Z,4.30
2022-08-31T04:37:24.272Z,5.03
2022-08-31T04:39:52.382Z,4.80
2022-08-31T04:42:20.120Z,5.10
2022-08-31T04:44:47.721Z,6.13
2022-08-31T04:47:15.140Z,5.20
2022-08-31T04:49:42.501Z,6.43
2022-08-31T04:52:09.958Z,6.27
2022-08-31T04:54:37.346Z,5.50
2022-08-31T04:57:04.891Z,4.50
2022-08-31T04:59:32.305Z,4.40
2022-08-31T05:01:59.686Z,4.40
2022-08-31T05:04:29.383Z,4.30
2022-08-31T05:06:57.665Z,4.50
2022-08-31T05:09:25.118Z,3.60
2022-08-31T05:11:54.493Z,3.83
2022-08-31T05:14:23.481Z,4.50
2022-08-31T05:16:51.815Z,3.47
2022-08-31T05:19:20.656Z,3.40
2022-08-31T05:21:48.331Z,4.00
2022-08-31T05:24:22.896Z,3.60
2022-08-31T05:26:53.329Z,3.57
2022-08-31T05:29:23.952Z,3.60
2022-08-31T05:31:52.756Z,4.50
2022-08-31T05:34:22.368Z,4.83
2022-08-31T05:36:55.710Z,4.80
2022-08-31T05:39:24.402Z,5.03
2022-08-31T05:41:52.593Z,15.53
2022-08-31T05:44:27.637Z,20.63
2022-08-31T05:47:03.586Z,14.37
2022-08-31T05:49:32.169Z,4.97
2022-08-31T05:52:00.808Z,3.27
2022-08-31T05:54:28.522Z,5.30
2022-08-31T05:57:01.031Z,9.20
2022-08-31T05:59:31.296Z,4.37
2022-08-31T06:01:59.803Z,2.90
2022-08-31T06:04:28.035Z,2.83
2022-08-31T06:06:56.014Z,2.83
2022-08-31T06:09:23.821Z,2.83
2022-08-31T06:11:51.596Z,2.33
2022-08-31T06:14:18.975Z,2.70
2022-08-31T06:16:47.066Z,2.70
2022-08-31T06:19:15.279Z,3.63
2022-08-31T06:21:50.509Z,3.20
2022-08-31T06:24:20.104Z,3.03
2022-08-31T06:26:58.452Z,2.80
2022-08-31T06:29:28.426Z,2.60
2022-08-31T06:31:56.061Z,2.97
2022-08-31T06:34:24.611Z,3.03
2022-08-31T06:36:51.986Z,2.90
2022-08-31T06:39:20.788Z,2.80
2022-08-31T06:41:49.228Z,3.03
2022-08-31T06:44:16.580Z,2.63
2022-08-31T06:46:47.052Z,2.87
2022-08-31T06:49:15.312Z,3.28
2022-08-31T06:51:43.988Z,3.38
2022-08-31T06:54:28.986Z,2.83
2022-08-31T06:56:58.952Z,2.80
2022-08-31T06:59:29.214Z,2.85
2022-08-31T07:02:02.058Z,3.17
2022-08-31T07:04:34.529Z,2.50
2022-08-31T07:07:02.605Z,3.20
2022-08-31T07:09:30.266Z,3.13
2022-08-31T07:11:58.192Z,3.10
2022-08-31T07:14:27.429Z,2.60
2022-08-31T07:16:57.965Z,2.90
2022-08-31T07:19:26.767Z,2.25
2022-08-31T07:22:00.473Z,2.65
2022-08-31T07:24:30.851Z,4.20
2022-08-31T07:27:02.655Z,2.60
2022-08-31T07:29:32.358Z,2.72
2022-08-31T07:32:00.529Z,2.40
2022-08-31T07:34:30.514Z,2.90
2022-08-31T07:37:19.058Z,3.10
2022-08-31T07:40:08.149Z,2.53
2022-08-31T07:42:44.144Z,2.85
2022-08-31T07:45:23.639Z,2.83
2022-08-31T07:48:00.123Z,3.20
2022-08-31T07:50:28.377Z,3.42
2022-08-31T07:52:58.334Z,2.70
2022-08-31T07:55:29.566Z,2.65
2022-08-31T07:57:57.758Z,2.95
2022-08-31T08:00:29.202Z,3.15
2022-08-31T08:03:01.951Z,2.58
2022-08-31T08:05:32.269Z,2.88
2022-08-31T08:08:10.532Z,2.95
2022-08-31T08:10:43.973Z,2.85
2022-08-31T08:13:17.504Z,2.97
2022-08-31T08:15:46.801Z,2.50
2022-08-31T08:18:14.765Z,2.80
2022-08-31T08:20:42.430Z,3.00
2022-08-31T08:23:18.511Z,2.83
2022-08-31T08:25:57.661Z,2.30
2022-08-31T08:28:45.948Z,2.25
2022-08-31T08:31:16.165Z,1.80
2022-08-31T08:33:45.147Z,2.47
2022-08-31T08:36:13.410Z,2.10
2022-08-31T08:38:44.123Z,2.10
2022-08-31T08:41:25.049Z,2.05
2022-08-31T08:43:57.158Z,1.80
2022-08-31T08:46:35.649Z,1.50
2022-08-31T08:49:16.352Z,1.40
2022-08-31T08:51:52.108Z,1.65
2022-08-31T08:54:37.369Z,2.42
2022-08-31T08:57:22.689Z,2.20
2022-08-31T08:59:51.984Z,2.83
2022-08-31T09:02:58.646Z,2.38
2022-08-31T09:05:44.259Z,2.40
2022-08-31T09:08:49.534Z,2.53
2022-08-31T09:11:35.880Z,2.25
2022-08-31T09:14:29.735Z,2.00
2022-08-31T09:17:25.298Z,1.80
2022-08-31T09:20:03.972Z,2.10
2022-08-31T09:22:33.815Z,2.23
2022-08-31T09:25:03.830Z,1.90
2022-08-31T09:27:57.633Z,1.90
2022-08-31T09:30:46.028Z,1.90
2022-08-31T09:33:22.611Z,2.17
2022-08-31T09:35:57.126Z,2.17
2022-08-31T09:38:38.037Z,2.10
2022-08-31T09:41:12.395Z,2.50
2022-08-31T09:43:41.309Z,2.30
2022-08-31T09:46:12.764Z,2.87
2022-08-31T09:48:44.582Z,2.57
2022-08-31T09:51:30.541Z,2.33
2022-08-31T09:54:35.140Z,2.90
2022-08-31T09:57:08.909Z,2.50
2022-08-31T09:59:47.452Z,2.50
2022-08-31T10:02:23.368Z,2.20
2022-08-31T10:04:52.856Z,2.77
2022-08-31T10:08:04.750Z,1.80
2022-08-31T10:10:37.646Z,1.70
2022-08-31T10:13:20.150Z,1.90
2022-08-31T10:15:54.721Z,2.10
2022-08-31T10:18:47.517Z,1.33
2022-08-31T10:21:21.721Z,1.70
2022-08-31T10:23:55.098Z,1.63
2022-08-31T10:26:37.166Z,1.70
2022-08-31T10:29:19.106Z,1.93
2022-08-31T10:31:54.297Z,1.90
2022-08-31T10:34:51.078Z,1.80
2022-08-31T10:37:27.386Z,1.70
2022-08-31T10:40:03.390Z,1.63
2022-08-31T10:42:42.124Z,1.60
2022-08-31T10:45:22.630Z,1.87
2022-08-31T10:47:53.288Z,3.40
2022-08-31T10:50:49.417Z,3.50
2022-08-31T10:53:41.865Z,2.30
2022-08-31T10:56:18.902Z,2.33
2022-08-31T10:59:32.126Z,2.70
2022-08-31T11:02:02.277Z,5.03
2022-08-31T11:05:02.565Z,2.67
2022-08-31T11:07:47.830Z,2.20
2022-08-31T11:10:45.942Z,1.90
2022-08-31T11:13:48.640Z,1.77
2022-08-31T11:16:57.462Z,1.80
2022-08-31T11:19:43.014Z,1.42
2022-08-31T11:22:37.713Z,1.40
2022-08-31T11:25:25.243Z,1.50
2022-08-31T11:28:09.584Z,1.50
2022-08-31T11:30:51.238Z,1.42
2022-08-31T11:33:25.266Z,1.58
2022-08-31T11:36:06.768Z,1.88
2022-08-31T11:38:56.988Z,1.90
2022-08-31T11:41:43.827Z,2.00
2022-08-31T11:44:31.230Z,2.10
2022-08-31T11:47:13.187Z,1.70
2022-08-31T11:49:50.441Z,1.60
2022-08-31T11:52:37.318Z,2.20
2022-08-31T11:55:24.748Z,1.50
2022-08-31T11:58:07.833Z,1.50
2022-08-31T12:00:54.336Z,1.70
2022-08-31T12:03:44.156Z,1.52
2022-08-31T12:06:36.494Z,1.42
2022-08-31T12:09:37.323Z,1.45
2022-08-31T12:12:30.752Z,1.25
2022-08-31T12:15:21.415Z,1.70
2022-08-31T12:18:03.294Z,1.40
2022-08-31T12:21:07.441Z,1.98
2022-08-31T12:23:59.609Z,1.15
2022-08-31T12:27:01.817Z,1.63
2022-08-31T12:29:38.128Z,1.00
2022-08-31T12:32:33.121Z,1.23
2022-08-31T12:35:28.030Z,1.10
2022-08-31T12:38:11.248Z,1.13
2022-08-31T12:40:51.451Z,1.27
2022-08-31T12:43:47.356Z,1.00
2022-08-31T12:46:38.404Z,1.20
2022-08-31T12:49:22.991Z,1.05
2022-08-31T12:51:53.774Z,1.23
2022-08-31T12:54:27.077Z,1.10
2022-08-31T12:57:15.885Z,1.00
2022-08-31T13:00:21.749Z,1.27
2022-08-31T13:02:52.937Z,1.23
2022-08-31T13:05:31.596Z,1.40
2022-08-31T13:07:59.875Z,1.20
2022-08-31T13:10:36.740Z,1.00
2022-08-31T13:13:09.443Z,1.30
2022-08-31T13:15:42.889Z,1.17
2022-08-31T13:18:17.075Z,0.98
2022-08-31T13:20:46.331Z,1.40
2022-08-31T13:23:22.515Z,1.00
2022-08-31T13:26:22.058Z,0.90
2022-08-31T13:29:04.303Z,0.93
2022-08-31T13:31:52.791Z,1.10
2022-08-31T13:34:23.850Z,0.80
2022-08-31T13:36:59.203Z,0.98
2022-08-31T13:39:39.410Z,1.05
2022-08-31T13:42:11.825Z,0.90
2022-08-31T13:44:55.278Z,0.75
2022-08-31T13:47:25.040Z,1.20
2022-08-31T13:50:03.418Z,1.10
2022-08-31T13:52:31.673Z,1.15
2022-08-31T13:55:06.174Z,0.98
2022-08-31T13:57:38.595Z,1.13
2022-08-31T14:00:24.057Z,0.93
2022-08-31T14:02:54.042Z,0.88
2022-08-31T14:05:32.682Z,0.98
2022-08-31T14:08:08.516Z,1.00
2022-08-31T14:10:41.110Z,1.20
2022-08-31T14:13:20.990Z,0.90
2022-08-31T14:15:52.893Z,0.98
2022-08-31T14:18:43.693Z,1.30
2022-08-31T14:21:26.930Z,0.80
2022-08-31T14:24:02.255Z,0.98
2022-08-31T14:26:33.591Z,1.15
2022-08-31T14:29:11.182Z,1.75
2022-08-31T14:31:49.847Z,1.77
2022-08-31T14:34:27.304Z,2.50
2022-08-31T14:36:58.777Z,2.00
2022-08-31T14:39:28.263Z,1.55
2022-08-31T14:41:59.986Z,1.55
2022-08-31T14:44:33.403Z,2.33
2022-08-31T14:47:01.139Z,4.70
2022-08-31T14:49:32.685Z,3.30
2022-08-31T14:52:06.798Z,2.42
2022-08-31T14:54:37.953Z,1.55
2022-08-31T14:57:24.315Z,1.30
2022-08-31T14:59:58.034Z,0.77
2022-08-31T15:02:28.612Z,1.00
2022-08-31T15:05:01.770Z,0.95
2022-08-31T15:07:31.447Z,0.90
2022-08-31T15:10:00.395Z,0.90
2022-08-31T15:12:28.296Z,0.88
2022-08-31T15:14:59.767Z,0.98
2022-08-31T15:17:36.632Z,0.73
2022-08-31T15:20:06.347Z,0.90
2022-08-31T15:22:35.404Z,0.80
2022-08-31T15:25:03.269Z,0.70
2022-08-31T15:27:31.789Z,0.85
2022-08-31T15:30:08.587Z,1.00
2022-08-31T15:32:45.560Z,1.00
2022-08-31T15:35:20.971Z,0.90
2022-08-31T15:37:57.338Z,2.40
2022-08-31T15:40:28.985Z,1.80
2022-08-31T15:42:57.658Z,1.40
2022-08-31T15:45:28.817Z,1.20
2022-08-31T15:48:16.047Z,0.70
2022-08-31T15:51:01.547Z,0.90
2022-08-31T15:53:30.937Z,0.80
2022-08-31T15:56:06.736Z,1.00
2022-08-31T15:58:35.502Z,0.80
2022-08-31T16:01:05.433Z,0.70
2022-08-31T16:03:35.459Z,0.90
2022-08-31T16:06:04.565Z,0.80
2022-08-31T16:08:32.015Z,1.70
2022-08-31T16:10:59.580Z,4.40
2022-08-31T16:13:26.957Z,4.93
2022-08-31T16:15:54.269Z,3.88
2022-08-31T16:18:25.205Z,2.25
2022-08-31T16:20:52.566Z,2.53
2022-08-31T16:23:22.080Z,1.67
2022-08-31T16:25:49.767Z,1.60
2022-08-31T16:28:20.690Z,1.20
2022-08-31T16:30:51.173Z,0.80
2022-08-31T16:33:19.060Z,1.25
2022-08-31T16:35:46.750Z,1.10
2022-08-31T16:38:14.418Z,1.27
2022-08-31T16:40:43.207Z,1.13
2022-08-31T16:43:11.581Z,1.30
2022-08-31T16:45:40.343Z,1.40
2022-08-31T16:48:29.358Z,2.88
2022-08-31T16:51:00.120Z,11.50
2022-08-31T16:53:28.851Z,13.52
2022-08-31T16:55:59.369Z,14.63
2022-08-31T16:58:49.983Z,9.88
2022-08-31T17:01:17.290Z,8.93
2022-08-31T17:03:49.856Z,7.05
2022-08-31T17:06:17.769Z,6.60
2022-08-31T17:08:45.780Z,9.10
2022-08-31T17:11:15.236Z,9.70
2022-08-31T17:13:47.838Z,6.82
2022-08-31T17:16:21.432Z,5.60
2022-08-31T17:18:51.886Z,5.20
2022-08-31T17:21:22.620Z,5.70
2022-08-31T17:23:51.770Z,4.68
2022-08-31T17:26:21.059Z,6.00
2022-08-31T17:28:54.205Z,7.22
2022-08-31T17:31:22.111Z,6.88
2022-08-31T17:33:49.413Z,5.60
2022-08-31T17:36:20.400Z,4.22
2022-08-31T17:38:49.837Z,3.67
2022-08-31T17:41:17.436Z,3.30
2022-08-31T17:43:45.125Z,2.57
2022-08-31T17:46:14.034Z,2.23
2022-08-31T17:48:44.460Z,1.53
2022-08-31T17:51:27.333Z,1.33
2022-08-31T17:54:00.790Z,1.70
2022-08-31T17:56:34.540Z,1.63
2022-08-31T17:59:02.071Z,2.37
2022-08-31T18:01:32.245Z,1.90
2022-08-31T18:04:02.394Z,2.17
2022-08-31T18:06:31.126Z,1.80
2022-08-31T18:08:59.349Z,1.87
2022-08-31T18:11:27.647Z,1.83
2022-08-31T18:13:56.081Z,1.40
2022-08-31T18:16:23.550Z,1.50
2022-08-31T18:18:51.567Z,1.80
2022-08-31T18:21:24.555Z,1.20
2022-08-31T18:23:54.050Z,1.40
2022-08-31T18:26:27.882Z,1.57
2022-08-31T18:28:56.198Z,1.20
2022-08-31T18:31:32.531Z,1.27
2022-08-31T18:34:01.468Z,1.43
2022-08-31T18:36:31.235Z,1.50
2022-08-31T18:39:01.120Z,1.40
2022-08-31T18:41:48.636Z,1.40
2022-08-31T18:44:34.618Z,1.53
2022-08-31T18:47:06.233Z,1.60
2022-08-31T18:49:38.932Z,1.70
2022-08-31T18:52:08.147Z,1.10
2022-08-31T18:54:35.710Z,1.40
2022-08-31T18:57:06.825Z,1.17
2022-08-31T18:59:34.208Z,1.50
2022-08-31T19:02:01.790Z,1.40
2022-08-31T19:04:31.095Z,2.60
2022-08-31T19:06:59.824Z,1.80
2022-08-31T19:09:27.378Z,1.90
2022-08-31T19:11:56.354Z,2.67
2022-08-31T19:14:26.264Z,2.00
2022-08-31T19:17:01.391Z,2.37
2022-08-31T19:19:32.595Z,2.27
2022-08-31T19:22:00.775Z,1.70
2022-08-31T19:24:28.178Z,2.07
2022-08-31T19:26:59.579Z,1.83
2022-08-31T19:29:30.183Z,2.60
2022-08-31T19:31:59.893Z,1.90
2022-08-31T19:34:30.423Z,2.00
2022-08-31T19:36:59.408Z,1.90
2022-08-31T19:39:30.729Z,1.87
2022-08-31T19:42:03.738Z,2.07
2022-08-31T19:47:25.165Z,1.70
2022-08-31T19:49:53.166Z,1.90
2022-08-31T19:52:21.052Z,1.50
2022-08-31T19:54:49.180Z,1.77
2022-08-31T19:57:17.148Z,1.97
2022-08-31T19:59:47.029Z,1.50
2022-08-31T20:02:19.104Z,1.67
2022-08-31T20:04:46.824Z,1.90
2022-08-31T20:07:17.146Z,2.17
2022-08-31T20:09:45.102Z,1.77
2022-08-31T20:12:12.642Z,2.10
2022-08-31T20:14:39.992Z,1.80
2022-08-31T20:17:10.023Z,1.90
2022-08-31T20:19:39.865Z,2.20
2022-08-31T20:22:08.344Z,1.97
2022-08-31T20:24:43.919Z,2.10
2022-08-31T20:27:18.427Z,1.87
2022-08-31T20:29:47.133Z,1.70
2022-08-31T20:32:14.797Z,1.67
2022-08-31T20:34:43.788Z,2.20
2022-08-31T20:37:11.310Z,1.83
2022-08-31T20:39:42.262Z,1.90
2022-08-31T20:42:10.109Z,1.50
2022-08-31T20:44:38.776Z,1.60
2022-08-31T20:47:29.492Z,2.00
2022-08-31T20:50:02.734Z,1.40
2022-08-31T20:52:32.693Z,1.50
2022-08-31T20:55:02.689Z,1.90
2022-08-31T20:57:32.513Z,1.90
2022-08-31T21:00:02.163Z,1.60
2022-08-31T21:02:31.874Z,1.60
2022-08-31T21:05:15.354Z,1.70
2022-08-31T21:07:48.195Z,2.00
2022-08-31T21:10:16.040Z,1.63
2022-08-31T21:12:53.350Z,1.53
2022-08-31T21:15:28.080Z,1.77
2022-08-31T21:17:59.948Z,2.20
2022-08-31T21:20:27.400Z,2.27
2022-08-31T21:22:54.828Z,2.07
2022-08-31T21:25:22.717Z,2.07
2022-08-31T21:27:50.054Z,2.10
2022-08-31T21:30:19.044Z,2.00
2022-08-31T21:32:47.089Z,2.30
2022-08-31T21:35:16.059Z,1.87
2022-08-31T21:37:43.422Z,1.53
2022-08-31T21:40:11.389Z,2.10
2022-08-31T21:42:38.934Z,2.40
2022-08-31T21:45:07.609Z,2.10
2022-08-31T21:47:34.981Z,2.57
2022-08-31T21:50:02.704Z,1.90
2022-08-31T21:52:30.341Z,2.20
2022-08-31T21:54:57.790Z,2.40
2022-08-31T21:57:25.926Z,3.07
2022-08-31T21:59:53.681Z,4.20
2022-08-31T22:02:21.242Z,4.70
2022-08-31T22:04:48.596Z,3.40
2022-08-31T22:07:15.937Z,3.13
2022-08-31T22:09:43.930Z,3.33
2022-08-31T22:12:15.197Z,4.07
2022-08-31T22:14:44.965Z,3.07
2022-08-31T22:17:13.410Z,3.30
2022-08-31T22:19:41.749Z,3.20
2022-08-31T22:22:12.788Z,2.90
2022-08-31T22:24:42.091Z,3.17
2022-08-31T22:27:11.685Z,2.13
2022-08-31T22:29:40.896Z,2.50
2022-08-31T22:32:15.295Z,2.33
2022-08-31T22:34:43.796Z,3.03
2022-08-31T22:37:14.170Z,3.40
2022-08-31T22:39:43.268Z,3.00
2022-08-31T22:42:12.194Z,3.30
2022-08-31T22:44:42.499Z,3.93
2022-08-31T22:47:10.362Z,3.67
2022-08-31T22:49:37.913Z,3.17
2022-08-31T22:52:07.594Z,2.77
2022-08-31T22:54:35.567Z,3.30
2022-08-31T22:57:02.887Z,3.40
2022-08-31T22:59:30.811Z,3.73
2022-08-31T23:02:03.815Z,3.40
2022-08-31T23:04:33.919Z,3.57
2022-08-31T23:07:03.893Z,3.10
2022-08-31T23:09:32.345Z,3.03
2022-08-31T23:12:02.321Z,3.33
2022-08-31T23:14:31.421Z,3.27
2022-08-31T23:17:01.233Z,3.30
2022-08-31T23:19:33.531Z,3.43
2022-08-31T23:22:02.396Z,3.70
2022-08-31T23:24:52.202Z,3.17
2022-08-31T23:27:22.058Z,2.90
2022-08-31T23:29:52.189Z,2.73
2022-08-31T23:32:21.831Z,2.93
2022-08-31T23:34:52.858Z,3.93
2022-08-31T23:37:25.616Z,3.50
2022-08-31T23:39:56.570Z,2.90
2022-08-31T23:42:25.644Z,2.93
2022-08-31T23:44:53.845Z,3.30
2022-08-31T23:47:26.136Z,2.70
2022-08-31T23:49:53.861Z,2.60
2022-08-31T23:52:25.963Z,3.50
2022-08-31T23:54:57.974Z,3.07
2022-08-31T23:57:32.469Z,2.93
